sensor_id;sensor_type;location;lat;lon;timestamp;P1;durP1;ratioP1;P2;durP2;ratioP2
27375;SDS011;14844;51.302;6.354;2022-09-23T00:01:43;15.25;;;6.40;;
27375;SDS011;14844;51.302;6.354;2022-09-23T00:04:10;12.45;;;6.22;;
27375;SDS011;14844;51.302;6.354;2022-09-23T00:06:35;10.20;;;6.13;;
27375;SDS011;14844;51.302;6.354;2022-09-23T00:09:01;11.13;;;5.70;;
27375;SDS011;14844;51.302;6.354;2022-09-23T00:11:27;10.77;;;5.60;;
27375;SDS011;14844;51.302;6.354;2022-09-23T00:13:55;11.20;;;5.55;;
27375;SDS011;14844;51.302;6.354;2022-09-23T00:16:23;10.32;;;5.40;;
27375;SDS011;14844;51.302;6.354;2022-09-23T00:18:52;10.10;;;4.95;;
27375;SDS011;14844;51.302;6.354;2022-09-23T00:21:18;12.30;;;5.35;;
27375;SDS011;14844;51.302;6.354;2022-09-23T00:23:45;12.10;;;5.80;;
27375;SDS011;14844;51.302;6.354;2022-09-23T00:26:11;11.25;;;5.20;;
27375;SDS011;14844;51.302;6.354;2022-09-23T00:28:40;12.40;;;5.47;;
27375;SDS011;14844;51.302;6.354;2022-09-23T00:31:10;10.10;;;4.72;;
27375;SDS011;14844;51.302;6.354;2022-09-23T00:33:37;8.77;;;4.70;;
27375;SDS011;14844;51.302;6.354;2022-09-23T00:36:05;7.07;;;4.38;;
27375;SDS011;14844;51.302;6.354;2022-09-23T00:38:32;8.45;;;4.70;;
27375;SDS011;14844;51.302;6.354;2022-09-23T00:40:59;11.18;;;4.90;;
27375;SDS011;14844;51.302;6.354;2022-09-23T00:46:19;8.23;;;4.50;;
27375;SDS011;14844;51.302;6.354;2022-09-23T00:48:47;10.48;;;4.55;;
27375;SDS011;14844;51.302;6.354;2022-09-23T00:51:18;11.13;;;4.30;;
27375;SDS011;14844;51.302;6.354;2022-09-23T00:53:47;9.80;;;4.45;;
27375;SDS011;14844;51.302;6.354;2022-09-23T00:56:15;10.75;;;4.40;;
27375;SDS011;14844;51.302;6.354;2022-09-23T00:58:42;8.35;;;3.90;;
27375;SDS011;14844;51.302;6.354;2022-09-23T01:01:10;10.13;;;4.43;;
27375;SDS011;14844;51.302;6.354;2022-09-23T01:03:38;7.55;;;4.22;;
27375;SDS011;14844;51.302;6.354;2022-09-23T01:06:07;10.52;;;4.45;;
27375;SDS011;14844;51.302;6.354;2022-09-23T01:08:33;9.00;;;4.00;;
27375;SDS011;14844;51.302;6.354;2022-09-23T01:11:02;8.98;;;4.10;;
27375;SDS011;14844;51.302;6.354;2022-09-23T01:13:54;8.07;;;4.43;;
27375;SDS011;14844;51.302;6.354;2022-09-23T01:16:38;9.00;;;4.50;;
27375;SDS011;14844;51.302;6.354;2022-09-23T01:21:57;8.70;;;4.32;;
27375;SDS011;14844;51.302;6.354;2022-09-23T01:27:25;8.55;;;4.50;;
27375;SDS011;14844;51.302;6.354;2022-09-23T01:30:06;7.25;;;4.47;;
27375;SDS011;14844;51.302;6.354;2022-09-23T01:32:36;12.18;;;4.90;;
27375;SDS011;14844;51.302;6.354;2022-09-23T01:38:28;9.50;;;4.90;;
27375;SDS011;14844;51.302;6.354;2022-09-23T01:41:45;13.05;;;4.60;;
27375;SDS011;14844;51.302;6.354;2022-09-23T01:44:24;9.77;;;4.82;;
27375;SDS011;14844;51.302;6.354;2022-09-23T01:47:04;8.77;;;4.63;;
27375;SDS011;14844;51.302;6.354;2022-09-23T01:52:27;8.20;;;3.92;;
27375;SDS011;14844;51.302;6.354;2022-09-23T01:55:22;9.30;;;4.80;;
27375;SDS011;14844;51.302;6.354;2022-09-23T01:57:54;11.85;;;4.53;;
27375;SDS011;14844;51.302;6.354;2022-09-23T02:00:25;7.20;;;4.32;;
27375;SDS011;14844;51.302;6.354;2022-09-23T02:02:58;8.40;;;4.65;;
27375;SDS011;14844;51.302;6.354;2022-09-23T02:05:31;8.57;;;4.45;;
27375;SDS011;14844;51.302;6.354;2022-09-23T02:08:08;8.70;;;4.53;;
27375;SDS011;14844;51.302;6.354;2022-09-23T02:10:39;9.02;;;4.80;;
27375;SDS011;14844;51.302;6.354;2022-09-23T02:13:30;10.10;;;5.47;;
27375;SDS011;14844;51.302;6.354;2022-09-23T02:16:00;8.85;;;4.90;;
27375;SDS011;14844;51.302;6.354;2022-09-23T02:18:31;9.45;;;4.72;;
27375;SDS011;14844;51.302;6.354;2022-09-23T02:21:06;7.35;;;4.53;;
27375;SDS011;14844;51.302;6.354;2022-09-23T02:23:44;9.45;;;4.85;;
27375;SDS011;14844;51.302;6.354;2022-09-23T02:26:18;8.30;;;4.88;;
27375;SDS011;14844;51.302;6.354;2022-09-23T02:28:59;12.70;;;5.28;;
27375;SDS011;14844;51.302;6.354;2022-09-23T02:31:55;13.75;;;5.60;;
27375;SDS011;14844;51.302;6.354;2022-09-23T02:34:43;11.45;;;5.50;;
27375;SDS011;14844;51.302;6.354;2022-09-23T02:39:56;11.80;;;6.03;;
27375;SDS011;14844;51.302;6.354;2022-09-23T02:42:41;9.90;;;5.50;;
27375;SDS011;14844;51.302;6.354;2022-09-23T02:45:28;13.38;;;6.15;;
27375;SDS011;14844;51.302;6.354;2022-09-23T02:47:56;12.93;;;6.10;;
27375;SDS011;14844;51.302;6.354;2022-09-23T02:50:31;9.70;;;5.85;;
27375;SDS011;14844;51.302;6.354;2022-09-23T02:52:57;10.00;;;5.95;;
27375;SDS011;14844;51.302;6.354;2022-09-23T02:55:24;12.57;;;6.30;;
27375;SDS011;14844;51.302;6.354;2022-09-23T02:57:55;10.88;;;6.38;;
27375;SDS011;14844;51.302;6.354;2022-09-23T03:00:20;13.13;;;6.93;;
27375;SDS011;14844;51.302;6.354;2022-09-23T03:05:28;13.00;;;7.80;;
27375;SDS011;14844;51.302;6.354;2022-09-23T03:13:39;11.30;;;7.70;;
27375;SDS011;14844;51.302;6.354;2022-09-23T03:21:39;12.15;;;9.13;;
27375;SDS011;14844;51.302;6.354;2022-09-23T03:24:09;12.90;;;9.00;;
27375;SDS011;14844;51.302;6.354;2022-09-23T03:26:38;17.52;;;9.98;;
27375;SDS011;14844;51.302;6.354;2022-09-23T03:29:06;20.17;;;10.38;;
27375;SDS011;14844;51.302;6.354;2022-09-23T03:31:34;14.02;;;10.88;;
27375;SDS011;14844;51.302;6.354;2022-09-23T03:34:02;15.27;;;10.05;;
27375;SDS011;14844;51.302;6.354;2022-09-23T03:36:35;16.75;;;10.60;;
27375;SDS011;14844;51.302;6.354;2022-09-23T03:41:57;20.95;;;11.13;;
27375;SDS011;14844;51.302;6.354;2022-09-23T03:44:27;17.35;;;10.60;;
27375;SDS011;14844;51.302;6.354;2022-09-23T03:46:56;17.30;;;10.82;;
27375;SDS011;14844;51.302;6.354;2022-09-23T03:49:24;14.40;;;10.65;;
27375;SDS011;14844;51.302;6.354;2022-09-23T03:51:53;15.23;;;11.10;;
27375;SDS011;14844;51.302;6.354;2022-09-23T03:54:19;15.35;;;11.13;;
27375;SDS011;14844;51.302;6.354;2022-09-23T03:56:45;17.55;;;11.43;;
27375;SDS011;14844;51.302;6.354;2022-09-23T03:59:14;16.35;;;11.48;;
27375;SDS011;14844;51.302;6.354;2022-09-23T04:01:40;22.83;;;11.60;;
27375;SDS011;14844;51.302;6.354;2022-09-23T04:04:06;19.10;;;11.55;;
27375;SDS011;14844;51.302;6.354;2022-09-23T04:06:33;14.35;;;10.85;;
27375;SDS011;14844;51.302;6.354;2022-09-23T04:08:58;15.00;;;10.77;;
27375;SDS011;14844;51.302;6.354;2022-09-23T04:11:25;18.02;;;11.85;;
27375;SDS011;14844;51.302;6.354;2022-09-23T04:13:51;16.48;;;10.57;;
27375;SDS011;14844;51.302;6.354;2022-09-23T04:16:17;16.27;;;11.55;;
27375;SDS011;14844;51.302;6.354;2022-09-23T04:18:42;20.90;;;11.50;;
27375;SDS011;14844;51.302;6.354;2022-09-23T04:21:08;17.17;;;11.88;;
27375;SDS011;14844;51.302;6.354;2022-09-23T04:23:34;15.20;;;10.35;;
27375;SDS011;14844;51.302;6.354;2022-09-23T04:25:59;18.88;;;11.38;;
27375;SDS011;14844;51.302;6.354;2022-09-23T04:28:25;19.40;;;11.70;;
27375;SDS011;14844;51.302;6.354;2022-09-23T04:30:50;15.98;;;11.35;;
27375;SDS011;14844;51.302;6.354;2022-09-23T04:33:16;17.63;;;11.02;;
27375;SDS011;14844;51.302;6.354;2022-09-23T04:35:42;20.50;;;11.60;;
27375;SDS011;14844;51.302;6.354;2022-09-23T04:38:11;23.30;;;12.70;;
27375;SDS011;14844;51.302;6.354;2022-09-23T04:40:36;20.55;;;13.02;;
27375;SDS011;14844;51.302;6.354;2022-09-23T04:43:02;16.75;;;11.18;;
27375;SDS011;14844;51.302;6.354;2022-09-23T04:45:28;16.70;;;11.93;;
27375;SDS011;14844;51.302;6.354;2022-09-23T04:47:54;20.80;;;11.98;;
27375;SDS011;14844;51.302;6.354;2022-09-23T04:50:22;18.13;;;11.65;;
27375;SDS011;14844;51.302;6.354;2022-09-23T04:52:47;29.02;;;12.95;;
27375;SDS011;14844;51.302;6.354;2022-09-23T04:55:13;21.73;;;12.85;;
27375;SDS011;14844;51.302;6.354;2022-09-23T04:57:38;24.33;;;12.13;;
27375;SDS011;14844;51.302;6.354;2022-09-23T05:00:04;21.73;;;13.18;;
27375;SDS011;14844;51.302;6.354;2022-09-23T05:02:30;24.23;;;13.55;;
27375;SDS011;14844;51.302;6.354;2022-09-23T05:04:56;25.95;;;13.15;;
27375;SDS011;14844;51.302;6.354;2022-09-23T05:07:22;23.27;;;13.45;;
27375;SDS011;14844;51.302;6.354;2022-09-23T05:09:48;19.52;;;11.90;;
27375;SDS011;14844;51.302;6.354;2022-09-23T05:12:13;23.52;;;13.80;;
27375;SDS011;14844;51.302;6.354;2022-09-23T05:14:39;23.08;;;13.73;;
27375;SDS011;14844;51.302;6.354;2022-09-23T05:17:04;21.67;;;13.48;;
27375;SDS011;14844;51.302;6.354;2022-09-23T05:19:30;22.35;;;12.93;;
27375;SDS011;14844;51.302;6.354;2022-09-23T05:21:56;27.75;;;13.05;;
27375;SDS011;14844;51.302;6.354;2022-09-23T05:24:21;24.45;;;13.07;;
27375;SDS011;14844;51.302;6.354;2022-09-23T05:26:49;23.85;;;13.50;;
27375;SDS011;14844;51.302;6.354;2022-09-23T05:29:15;25.02;;;14.10;;
27375;SDS011;14844;51.302;6.354;2022-09-23T05:31:41;26.67;;;13.60;;
27375;SDS011;14844;51.302;6.354;2022-09-23T05:34:07;20.70;;;12.93;;
27375;SDS011;14844;51.302;6.354;2022-09-23T05:36:33;23.00;;;13.32;;
27375;SDS011;14844;51.302;6.354;2022-09-23T05:39:00;28.60;;;13.95;;
27375;SDS011;14844;51.302;6.354;2022-09-23T05:41:26;23.02;;;13.50;;
27375;SDS011;14844;51.302;6.354;2022-09-23T05:43:52;24.45;;;14.05;;
27375;SDS011;14844;51.302;6.354;2022-09-23T05:46:23;21.25;;;13.40;;
27375;SDS011;14844;51.302;6.354;2022-09-23T05:48:54;25.88;;;14.48;;
27375;SDS011;14844;51.302;6.354;2022-09-23T05:51:21;22.58;;;13.57;;
27375;SDS011;14844;51.302;6.354;2022-09-23T05:53:49;24.55;;;14.57;;
27375;SDS011;14844;51.302;6.354;2022-09-23T05:56:17;23.52;;;13.88;;
27375;SDS011;14844;51.302;6.354;2022-09-23T05:58:44;24.25;;;13.98;;
27375;SDS011;14844;51.302;6.354;2022-09-23T06:01:13;23.33;;;13.30;;
27375;SDS011;14844;51.302;6.354;2022-09-23T06:03:44;28.27;;;14.02;;
27375;SDS011;14844;51.302;6.354;2022-09-23T06:06:11;24.30;;;14.15;;
27375;SDS011;14844;51.302;6.354;2022-09-23T06:08:44;21.70;;;13.30;;
27375;SDS011;14844;51.302;6.354;2022-09-23T06:11:11;25.55;;;13.25;;
27375;SDS011;14844;51.302;6.354;2022-09-23T06:13:37;21.42;;;12.57;;
27375;SDS011;14844;51.302;6.354;2022-09-23T06:16:04;27.13;;;13.45;;
27375;SDS011;14844;51.302;6.354;2022-09-23T06:18:34;20.60;;;13.10;;
27375;SDS011;14844;51.302;6.354;2022-09-23T06:21:02;19.80;;;11.63;;
27375;SDS011;14844;51.302;6.354;2022-09-23T06:23:29;26.95;;;11.90;;
27375;SDS011;14844;51.302;6.354;2022-09-23T06:26:01;28.98;;;11.05;;
27375;SDS011;14844;51.302;6.354;2022-09-23T06:28:32;29.45;;;11.38;;
27375;SDS011;14844;51.302;6.354;2022-09-23T06:31:00;17.08;;;9.82;;
27375;SDS011;14844;51.302;6.354;2022-09-23T06:33:33;19.55;;;9.10;;
27375;SDS011;14844;51.302;6.354;2022-09-23T06:35:59;19.40;;;8.38;;
27375;SDS011;14844;51.302;6.354;2022-09-23T06:38:27;17.80;;;7.97;;
27375;SDS011;14844;51.302;6.354;2022-09-23T06:40:56;19.45;;;7.50;;
27375;SDS011;14844;51.302;6.354;2022-09-23T06:43:22;13.50;;;7.25;;
27375;SDS011;14844;51.302;6.354;2022-09-23T06:45:52;12.95;;;6.32;;
27375;SDS011;14844;51.302;6.354;2022-09-23T06:48:23;12.10;;;6.32;;
27375;SDS011;14844;51.302;6.354;2022-09-23T06:50:49;14.20;;;6.38;;
27375;SDS011;14844;51.302;6.354;2022-09-23T06:53:15;16.95;;;6.15;;
27375;SDS011;14844;51.302;6.354;2022-09-23T06:55:41;18.80;;;6.15;;
27375;SDS011;14844;51.302;6.354;2022-09-23T06:58:07;13.57;;;6.28;;
27375;SDS011;14844;51.302;6.354;2022-09-23T07:00:34;19.77;;;7.13;;
27375;SDS011;14844;51.302;6.354;2022-09-23T07:03:00;16.02;;;6.25;;
27375;SDS011;14844;51.302;6.354;2022-09-23T07:05:29;18.17;;;6.15;;
27375;SDS011;14844;51.302;6.354;2022-09-23T07:07:55;14.20;;;5.85;;
27375;SDS011;14844;51.302;6.354;2022-09-23T07:10:20;17.58;;;6.47;;
27375;SDS011;14844;51.302;6.354;2022-09-23T07:12:46;18.20;;;5.75;;
27375;SDS011;14844;51.302;6.354;2022-09-23T07:15:11;16.52;;;6.25;;
27375;SDS011;14844;51.302;6.354;2022-09-23T07:17:40;11.80;;;6.18;;
27375;SDS011;14844;51.302;6.354;2022-09-23T07:20:06;17.08;;;6.57;;
27375;SDS011;14844;51.302;6.354;2022-09-23T07:22:32;17.88;;;6.38;;
27375;SDS011;14844;51.302;6.354;2022-09-23T07:24:58;14.32;;;5.90;;
27375;SDS011;14844;51.302;6.354;2022-09-23T07:27:24;13.52;;;5.57;;
27375;SDS011;14844;51.302;6.354;2022-09-23T07:29:51;13.20;;;5.30;;
27375;SDS011;14844;51.302;6.354;2022-09-23T07:32:17;12.85;;;5.65;;
27375;SDS011;14844;51.302;6.354;2022-09-23T07:34:45;13.52;;;5.85;;
27375;SDS011;14844;51.302;6.354;2022-09-23T07:37:11;15.43;;;6.47;;
27375;SDS011;14844;51.302;6.354;2022-09-23T07:39:38;13.23;;;5.68;;
27375;SDS011;14844;51.302;6.354;2022-09-23T07:42:04;18.35;;;5.93;;
27375;SDS011;14844;51.302;6.354;2022-09-23T07:44:30;16.60;;;5.78;;
27375;SDS011;14844;51.302;6.354;2022-09-23T07:46:57;14.98;;;5.68;;
27375;SDS011;14844;51.302;6.354;2022-09-23T07:49:23;12.77;;;6.32;;
27375;SDS011;14844;51.302;6.354;2022-09-23T07:51:49;12.93;;;5.60;;
27375;SDS011;14844;51.302;6.354;2022-09-23T07:54:16;15.60;;;5.63;;
27375;SDS011;14844;51.302;6.354;2022-09-23T07:56:43;22.00;;;5.88;;
27375;SDS011;14844;51.302;6.354;2022-09-23T07:59:13;15.73;;;5.43;;
27375;SDS011;14844;51.302;6.354;2022-09-23T08:01:42;12.65;;;5.03;;
27375;SDS011;14844;51.302;6.354;2022-09-23T08:04:14;13.50;;;5.82;;
27375;SDS011;14844;51.302;6.354;2022-09-23T08:06:42;8.77;;;5.18;;
27375;SDS011;14844;51.302;6.354;2022-09-23T08:09:09;14.32;;;5.60;;
27375;SDS011;14844;51.302;6.354;2022-09-23T08:11:35;14.07;;;5.47;;
27375;SDS011;14844;51.302;6.354;2022-09-23T08:14:05;20.65;;;5.80;;
27375;SDS011;14844;51.302;6.354;2022-09-23T08:16:34;11.70;;;5.20;;
27375;SDS011;14844;51.302;6.354;2022-09-23T08:19:01;13.15;;;5.28;;
27375;SDS011;14844;51.302;6.354;2022-09-23T08:21:27;13.55;;;5.28;;
27375;SDS011;14844;51.302;6.354;2022-09-23T08:23:53;11.65;;;5.13;;
27375;SDS011;14844;51.302;6.354;2022-09-23T08:26:19;10.00;;;5.05;;
27375;SDS011;14844;51.302;6.354;2022-09-23T08:28:44;10.70;;;4.57;;
27375;SDS011;14844;51.302;6.354;2022-09-23T08:31:11;10.88;;;5.25;;
27375;SDS011;14844;51.302;6.354;2022-09-23T08:33:37;11.70;;;4.57;;
27375;SDS011;14844;51.302;6.354;2022-09-23T08:36:04;15.45;;;4.90;;
27375;SDS011;14844;51.302;6.354;2022-09-23T08:38:29;12.05;;;5.15;;
27375;SDS011;14844;51.302;6.354;2022-09-23T08:41:06;9.85;;;5.10;;
27375;SDS011;14844;51.302;6.354;2022-09-23T08:43:52;13.70;;;4.78;;
27375;SDS011;14844;51.302;6.354;2022-09-23T08:46:24;10.32;;;4.40;;
27375;SDS011;14844;51.302;6.354;2022-09-23T08:48:53;9.25;;;4.10;;
27375;SDS011;14844;51.302;6.354;2022-09-23T08:51:31;14.30;;;4.50;;
27375;SDS011;14844;51.302;6.354;2022-09-23T08:54:10;10.20;;;4.70;;
27375;SDS011;14844;51.302;6.354;2022-09-23T08:56:36;10.40;;;4.53;;
27375;SDS011;14844;51.302;6.354;2022-09-23T09:02:04;10.75;;;4.65;;
27375;SDS011;14844;51.302;6.354;2022-09-23T09:04:39;8.70;;;3.80;;
27375;SDS011;14844;51.302;6.354;2022-09-23T09:09:50;9.80;;;2.70;;
27375;SDS011;14844;51.302;6.354;2022-09-23T09:15:28;5.70;;;2.55;;
27375;SDS011;14844;51.302;6.354;2022-09-23T09:17:58;4.95;;;2.38;;
27375;SDS011;14844;51.302;6.354;2022-09-23T09:23:51;4.90;;;2.40;;
27375;SDS011;14844;51.302;6.354;2022-09-23T09:26:27;6.68;;;2.40;;
27375;SDS011;14844;51.302;6.354;2022-09-23T09:31:38;10.48;;;2.35;;
27375;SDS011;14844;51.302;6.354;2022-09-23T09:39:30;5.63;;;2.30;;
27375;SDS011;14844;51.302;6.354;2022-09-23T09:41:57;6.10;;;2.10;;
27375;SDS011;14844;51.302;6.354;2022-09-23T09:44:30;10.57;;;2.65;;
27375;SDS011;14844;51.302;6.354;2022-09-23T09:49:47;5.30;;;2.40;;
27375;SDS011;14844;51.302;6.354;2022-09-23T09:54:46;7.32;;;2.70;;
27375;SDS011;14844;51.302;6.354;2022-09-23T09:57:35;7.25;;;2.70;;
27375;SDS011;14844;51.302;6.354;2022-09-23T10:01:02;6.03;;;2.72;;
27375;SDS011;14844;51.302;6.354;2022-09-23T10:10:51;6.43;;;2.75;;
27375;SDS011;14844;51.302;6.354;2022-09-23T10:13:23;15.95;;;2.67;;
27375;SDS011;14844;51.302;6.354;2022-09-23T10:15:50;13.20;;;2.85;;
27375;SDS011;14844;51.302;6.354;2022-09-23T10:18:29;7.07;;;2.78;;
27375;SDS011;14844;51.302;6.354;2022-09-23T10:23:32;6.07;;;2.50;;
27375;SDS011;14844;51.302;6.354;2022-09-23T10:26:02;6.33;;;2.93;;
27375;SDS011;14844;51.302;6.354;2022-09-23T10:28:38;5.22;;;2.28;;
27375;SDS011;14844;51.302;6.354;2022-09-23T10:33:39;5.88;;;3.00;;
27375;SDS011;14844;51.302;6.354;2022-09-23T10:36:08;9.13;;;2.90;;
27375;SDS011;14844;51.302;6.354;2022-09-23T10:38:33;10.63;;;2.80;;
27375;SDS011;14844;51.302;6.354;2022-09-23T10:40:59;6.78;;;2.20;;
27375;SDS011;14844;51.302;6.354;2022-09-23T10:58:10;9.10;;;2.55;;
27375;SDS011;14844;51.302;6.354;2022-09-23T11:03:44;4.32;;;2.00;;
27375;SDS011;14844;51.302;6.354;2022-09-23T11:06:23;5.22;;;1.98;;
27375;SDS011;14844;51.302;6.354;2022-09-23T11:33:58;6.22;;;2.08;;
27375;SDS011;14844;51.302;6.354;2022-09-23T11:39:21;6.25;;;2.30;;
27375;SDS011;14844;51.302;6.354;2022-09-23T11:41:52;8.02;;;2.10;;
27375;SDS011;14844;51.302;6.354;2022-09-23T11:49:38;5.95;;;1.90;;
27375;SDS011;14844;51.302;6.354;2022-09-23T11:52:11;7.22;;;2.28;;
27375;SDS011;14844;51.302;6.354;2022-09-23T11:55:14;4.37;;;2.00;;
27375;SDS011;14844;51.302;6.354;2022-09-23T11:57:48;6.63;;;2.10;;
27375;SDS011;14844;51.302;6.354;2022-09-23T12:00:17;7.13;;;2.08;;
27375;SDS011;14844;51.302;6.354;2022-09-23T12:06:02;5.85;;;1.80;;
27375;SDS011;14844;51.302;6.354;2022-09-23T12:08:35;4.78;;;1.95;;
27375;SDS011;14844;51.302;6.354;2022-09-23T12:11:18;3.92;;;1.80;;
27375;SDS011;14844;51.302;6.354;2022-09-23T12:16:44;8.98;;;2.20;;
27375;SDS011;14844;51.302;6.354;2022-09-23T12:21:58;8.13;;;1.90;;
27375;SDS011;14844;51.302;6.354;2022-09-23T12:24:44;5.40;;;1.88;;
27375;SDS011;14844;51.302;6.354;2022-09-23T12:27:24;4.55;;;1.70;;
27375;SDS011;14844;51.302;6.354;2022-09-23T12:30:04;6.35;;;1.80;;
27375;SDS011;14844;51.302;6.354;2022-09-23T12:32:36;5.38;;;2.08;;
27375;SDS011;14844;51.302;6.354;2022-09-23T12:35:02;4.53;;;1.73;;
27375;SDS011;14844;51.302;6.354;2022-09-23T12:37:34;5.53;;;1.88;;
27375;SDS011;14844;51.302;6.354;2022-09-23T12:40:14;3.80;;;1.73;;
27375;SDS011;14844;51.302;6.354;2022-09-23T12:43:00;5.30;;;1.70;;
27375;SDS011;14844;51.302;6.354;2022-09-23T12:47:55;4.93;;;2.03;;
27375;SDS011;14844;51.302;6.354;2022-09-23T13:01:15;3.78;;;1.50;;
27375;SDS011;14844;51.302;6.354;2022-09-23T13:03:47;4.30;;;1.52;;
27375;SDS011;14844;51.302;6.354;2022-09-23T13:09:39;5.18;;;1.73;;
27375;SDS011;14844;51.302;6.354;2022-09-23T13:15:13;5.60;;;1.73;;
27375;SDS011;14844;51.302;6.354;2022-09-23T13:17:46;6.70;;;1.70;;
27375;SDS011;14844;51.302;6.354;2022-09-23T13:20:31;7.18;;;1.90;;
27375;SDS011;14844;51.302;6.354;2022-09-23T13:23:42;4.05;;;1.67;;
27375;SDS011;14844;51.302;6.354;2022-09-23T13:25:55;4.65;;;1.83;;
27375;SDS011;14844;51.302;6.354;2022-09-23T13:28:27;3.75;;;1.80;;
27375;SDS011;14844;51.302;6.354;2022-09-23T13:30:54;11.18;;;2.15;;
27375;SDS011;14844;51.302;6.354;2022-09-23T13:34:03;8.02;;;2.08;;
27375;SDS011;14844;51.302;6.354;2022-09-23T13:36:15;6.45;;;1.90;;
27375;SDS011;14844;51.302;6.354;2022-09-23T13:38:42;8.45;;;2.00;;
27375;SDS011;14844;51.302;6.354;2022-09-23T13:41:17;8.52;;;2.25;;
27375;SDS011;14844;51.302;6.354;2022-09-23T13:43:52;6.22;;;2.20;;
27375;SDS011;14844;51.302;6.354;2022-09-23T13:46:23;9.40;;;2.20;;
27375;SDS011;14844;51.302;6.354;2022-09-23T13:48:51;10.13;;;2.17;;
27375;SDS011;14844;51.302;6.354;2022-09-23T13:53:51;7.93;;;2.00;;
27375;SDS011;14844;51.302;6.354;2022-09-23T13:56:18;7.80;;;2.25;;
27375;SDS011;14844;51.302;6.354;2022-09-23T13:58:44;4.90;;;2.25;;
27375;SDS011;14844;51.302;6.354;2022-09-23T14:01:30;7.35;;;2.10;;
27375;SDS011;14844;51.302;6.354;2022-09-23T14:03:57;6.07;;;2.22;;
27375;SDS011;14844;51.302;6.354;2022-09-23T14:06:24;7.30;;;1.90;;
27375;SDS011;14844;51.302;6.354;2022-09-23T14:08:52;8.93;;;2.03;;
27375;SDS011;14844;51.302;6.354;2022-09-23T14:11:20;9.68;;;2.15;;
27375;SDS011;14844;51.302;6.354;2022-09-23T14:13:53;6.70;;;2.20;;
27375;SDS011;14844;51.302;6.354;2022-09-23T14:16:19;5.60;;;1.83;;
27375;SDS011;14844;51.302;6.354;2022-09-23T14:18:49;6.43;;;2.10;;
27375;SDS011;14844;51.302;6.354;2022-09-23T14:21:33;6.70;;;1.93;;
27375;SDS011;14844;51.302;6.354;2022-09-23T14:26:39;5.35;;;1.92;;
27375;SDS011;14844;51.302;6.354;2022-09-23T14:29:17;4.82;;;1.65;;
27375;SDS011;14844;51.302;6.354;2022-09-23T14:31:55;6.93;;;2.50;;
27375;SDS011;14844;51.302;6.354;2022-09-23T14:40:18;5.88;;;1.80;;
27375;SDS011;14844;51.302;6.354;2022-09-23T14:42:46;9.85;;;2.08;;
27375;SDS011;14844;51.302;6.354;2022-09-23T14:45:19;4.53;;;1.67;;
27375;SDS011;14844;51.302;6.354;2022-09-23T14:47:57;7.75;;;2.00;;
27375;SDS011;14844;51.302;6.354;2022-09-23T14:50:26;3.60;;;1.55;;
27375;SDS011;14844;51.302;6.354;2022-09-23T14:58:47;8.38;;;1.98;;
27375;SDS011;14844;51.302;6.354;2022-09-23T15:03:59;4.50;;;1.77;;
27375;SDS011;14844;51.302;6.354;2022-09-23T15:06:47;6.47;;;1.70;;
27375;SDS011;14844;51.302;6.354;2022-09-23T15:09:20;8.57;;;2.00;;
27375;SDS011;14844;51.302;6.354;2022-09-23T15:11:56;5.03;;;1.83;;
27375;SDS011;14844;51.302;6.354;2022-09-23T15:14:25;8.05;;;2.28;;
27375;SDS011;14844;51.302;6.354;2022-09-23T15:16:52;9.85;;;2.22;;
27375;SDS011;14844;51.302;6.354;2022-09-23T15:19:18;4.32;;;1.70;;
27375;SDS011;14844;51.302;6.354;2022-09-23T15:21:46;6.40;;;2.10;;
27375;SDS011;14844;51.302;6.354;2022-09-23T15:24:33;5.45;;;2.00;;
27375;SDS011;14844;51.302;6.354;2022-09-23T15:27:24;9.63;;;2.05;;
27375;SDS011;14844;51.302;6.354;2022-09-23T15:32:41;11.10;;;2.70;;
27375;SDS011;14844;51.302;6.354;2022-09-23T15:35:14;7.07;;;2.30;;
27375;SDS011;14844;51.302;6.354;2022-09-23T15:37:45;5.50;;;2.42;;
27375;SDS011;14844;51.302;6.354;2022-09-23T15:42:58;5.80;;;2.20;;
27375;SDS011;14844;51.302;6.354;2022-09-23T15:45:32;16.02;;;2.70;;
27375;SDS011;14844;51.302;6.354;2022-09-23T15:48:05;9.45;;;2.53;;
27375;SDS011;14844;51.302;6.354;2022-09-23T15:50:34;7.07;;;2.53;;
27375;SDS011;14844;51.302;6.354;2022-09-23T15:53:00;7.70;;;2.28;;
27375;SDS011;14844;51.302;6.354;2022-09-23T15:55:25;8.95;;;2.00;;
27375;SDS011;14844;51.302;6.354;2022-09-23T15:57:51;9.38;;;2.60;;
27375;SDS011;14844;51.302;6.354;2022-09-23T16:00:17;10.75;;;2.60;;
27375;SDS011;14844;51.302;6.354;2022-09-23T16:02:43;14.45;;;2.58;;
27375;SDS011;14844;51.302;6.354;2022-09-23T16:05:21;12.88;;;3.10;;
27375;SDS011;14844;51.302;6.354;2022-09-23T16:07:57;10.50;;;2.50;;
27375;SDS011;14844;51.302;6.354;2022-09-23T16:10:23;12.77;;;2.90;;
27375;SDS011;14844;51.302;6.354;2022-09-23T16:12:49;8.98;;;2.88;;
27375;SDS011;14844;51.302;6.354;2022-09-23T16:15:18;11.88;;;2.65;;
27375;SDS011;14844;51.302;6.354;2022-09-23T16:17:45;9.52;;;2.80;;
27375;SDS011;14844;51.302;6.354;2022-09-23T16:20:11;14.20;;;2.83;;
27375;SDS011;14844;51.302;6.354;2022-09-23T16:22:41;7.65;;;2.70;;
27375;SDS011;14844;51.302;6.354;2022-09-23T16:25:28;9.32;;;2.50;;
27375;SDS011;14844;51.302;6.354;2022-09-23T16:27:57;10.68;;;2.60;;
27375;SDS011;14844;51.302;6.354;2022-09-23T16:30:26;6.63;;;2.50;;
27375;SDS011;14844;51.302;6.354;2022-09-23T16:32:53;13.23;;;2.67;;
27375;SDS011;14844;51.302;6.354;2022-09-23T16:35:20;6.25;;;2.95;;
27375;SDS011;14844;51.302;6.354;2022-09-23T16:37:47;10.82;;;3.10;;
27375;SDS011;14844;51.302;6.354;2022-09-23T16:40:13;15.93;;;2.83;;
27375;SDS011;14844;51.302;6.354;2022-09-23T16:42:43;9.43;;;2.70;;
27375;SDS011;14844;51.302;6.354;2022-09-23T16:45:10;12.93;;;3.03;;
27375;SDS011;14844;51.302;6.354;2022-09-23T16:47:40;10.18;;;2.90;;
27375;SDS011;14844;51.302;6.354;2022-09-23T16:50:11;13.45;;;2.95;;
27375;SDS011;14844;51.302;6.354;2022-09-23T16:52:37;13.60;;;2.80;;
27375;SDS011;14844;51.302;6.354;2022-09-23T16:55:03;10.23;;;2.60;;
27375;SDS011;14844;51.302;6.354;2022-09-23T16:57:29;9.07;;;2.95;;
27375;SDS011;14844;51.302;6.354;2022-09-23T16:59:54;12.52;;;3.53;;
27375;SDS011;14844;51.302;6.354;2022-09-23T17:02:39;10.10;;;2.78;;
27375;SDS011;14844;51.302;6.354;2022-09-23T17:05:23;15.25;;;3.30;;
27375;SDS011;14844;51.302;6.354;2022-09-23T17:07:49;10.52;;;3.10;;
27375;SDS011;14844;51.302;6.354;2022-09-23T17:10:15;6.57;;;2.97;;
27375;SDS011;14844;51.302;6.354;2022-09-23T17:12:42;10.50;;;2.92;;
27375;SDS011;14844;51.302;6.354;2022-09-23T17:15:08;10.57;;;2.80;;
27375;SDS011;14844;51.302;6.354;2022-09-23T17:17:35;15.45;;;3.35;;
27375;SDS011;14844;51.302;6.354;2022-09-23T17:20:02;12.35;;;3.60;;
27375;SDS011;14844;51.302;6.354;2022-09-23T17:22:30;11.70;;;2.90;;
27375;SDS011;14844;51.302;6.354;2022-09-23T17:24:57;13.32;;;3.10;;
27375;SDS011;14844;51.302;6.354;2022-09-23T17:27:24;9.98;;;3.10;;
27375;SDS011;14844;51.302;6.354;2022-09-23T17:29:50;9.15;;;3.17;;
27375;SDS011;14844;51.302;6.354;2022-09-23T17:32:15;16.50;;;3.25;;
27375;SDS011;14844;51.302;6.354;2022-09-23T17:34:42;16.23;;;3.35;;
27375;SDS011;14844;51.302;6.354;2022-09-23T17:37:08;11.63;;;3.00;;
27375;SDS011;14844;51.302;6.354;2022-09-23T17:39:53;16.70;;;3.78;;
27375;SDS011;14844;51.302;6.354;2022-09-23T17:42:19;11.38;;;3.40;;
27375;SDS011;14844;51.302;6.354;2022-09-23T17:44:44;12.68;;;3.60;;
27375;SDS011;14844;51.302;6.354;2022-09-23T17:47:10;18.60;;;3.88;;
27375;SDS011;14844;51.302;6.354;2022-09-23T17:49:35;11.38;;;3.45;;
27375;SDS011;14844;51.302;6.354;2022-09-23T17:52:01;8.05;;;3.63;;
27375;SDS011;14844;51.302;6.354;2022-09-23T17:54:29;13.32;;;3.80;;